sensor_id;sensor_type;location;lat;lon;timestamp;P1;durP1;ratioP1;P2;durP2;ratioP2
41233;SDS011;26968;42.686;23.352;2022-12-18T00:02:13;17.13;;;9.00;;
41233;SDS011;26968;42.686;23.352;2022-12-18T00:04:39;17.02;;;9.80;;
41233;SDS011;26968;42.686;23.352;2022-12-18T00:07:04;15.32;;;10.02;;
41233;SDS011;26968;42.686;23.352;2022-12-18T00:09:29;17.77;;;10.05;;
41233;SDS011;26968;42.686;23.352;2022-12-18T00:11:55;23.08;;;9.60;;
41233;SDS011;26968;42.686;23.352;2022-12-18T00:14:20;18.63;;;10.18;;
41233;SDS011;26968;42.686;23.352;2022-12-18T00:16:46;19.67;;;10.80;;
41233;SDS011;26968;42.686;23.352;2022-12-18T00:19:12;18.30;;;11.45;;
41233;SDS011;26968;42.686;23.352;2022-12-18T00:21:39;15.65;;;10.15;;
41233;SDS011;26968;42.686;23.352;2022-12-18T00:24:04;18.67;;;11.68;;
41233;SDS011;26968;42.686;23.352;2022-12-18T00:26:32;27.63;;;11.55;;
41233;SDS011;26968;42.686;23.352;2022-12-18T00:28:59;19.33;;;10.65;;
41233;SDS011;26968;42.686;23.352;2022-12-18T00:31:25;19.83;;;12.57;;
41233;SDS011;26968;42.686;23.352;2022-12-18T00:33:53;21.02;;;11.73;;
41233;SDS011;26968;42.686;23.352;2022-12-18T00:36:21;21.13;;;11.82;;
41233;SDS011;26968;42.686;23.352;2022-12-18T00:38:49;19.92;;;12.55;;
41233;SDS011;26968;42.686;23.352;2022-12-18T00:41:15;18.30;;;11.00;;
41233;SDS011;26968;42.686;23.352;2022-12-18T00:44:02;19.42;;;11.32;;
41233;SDS011;26968;42.686;23.352;2022-12-18T00:46:28;18.63;;;10.50;;
41233;SDS011;26968;42.686;23.352;2022-12-18T00:48:53;17.65;;;10.23;;
41233;SDS011;26968;42.686;23.352;2022-12-18T00:51:18;19.98;;;9.95;;
41233;SDS011;26968;42.686;23.352;2022-12-18T00:53:44;15.38;;;10.02;;
41233;SDS011;26968;42.686;23.352;2022-12-18T00:56:09;20.88;;;11.18;;
41233;SDS011;26968;42.686;23.352;2022-12-18T00:58:35;17.67;;;10.95;;
41233;SDS011;26968;42.686;23.352;2022-12-18T01:01:00;16.38;;;10.15;;
41233;SDS011;26968;42.686;23.352;2022-12-18T01:03:25;21.50;;;11.27;;
41233;SDS011;26968;42.686;23.352;2022-12-18T01:05:51;17.20;;;10.98;;
41233;SDS011;26968;42.686;23.352;2022-12-18T01:08:16;17.00;;;9.13;;
41233;SDS011;26968;42.686;23.352;2022-12-18T01:10:42;17.95;;;11.02;;
41233;SDS011;26968;42.686;23.352;2022-12-18T01:13:07;18.55;;;10.77;;
41233;SDS011;26968;42.686;23.352;2022-12-18T01:15:33;15.75;;;9.98;;
41233;SDS011;26968;42.686;23.352;2022-12-18T01:17:58;21.92;;;11.18;;
41233;SDS011;26968;42.686;23.352;2022-12-18T01:20:23;20.35;;;11.82;;
41233;SDS011;26968;42.686;23.352;2022-12-18T01:22:49;20.67;;;12.38;;
41233;SDS011;26968;42.686;23.352;2022-12-18T01:25:14;21.55;;;12.75;;
41233;SDS011;26968;42.686;23.352;2022-12-18T01:27:39;18.98;;;11.18;;
41233;SDS011;26968;42.686;23.352;2022-12-18T01:30:05;22.60;;;10.82;;
41233;SDS011;26968;42.686;23.352;2022-12-18T01:32:31;26.67;;;12.15;;
41233;SDS011;26968;42.686;23.352;2022-12-18T01:34:57;23.70;;;12.63;;
41233;SDS011;26968;42.686;23.352;2022-12-18T01:37:23;22.23;;;13.15;;
41233;SDS011;26968;42.686;23.352;2022-12-18T01:39:49;19.42;;;11.77;;
41233;SDS011;26968;42.686;23.352;2022-12-18T01:42:15;22.88;;;12.55;;
41233;SDS011;26968;42.686;23.352;2022-12-18T01:52:41;20.92;;;12.60;;
41233;SDS011;26968;42.686;23.352;2022-12-18T01:55:08;23.13;;;13.95;;
41233;SDS011;26968;42.686;23.352;2022-12-18T01:57:36;21.42;;;12.82;;
41233;SDS011;26968;42.686;23.352;2022-12-18T02:00:10;23.98;;;14.15;;
41233;SDS011;26968;42.686;23.352;2022-12-18T02:02:40;21.10;;;12.27;;
41233;SDS011;26968;42.686;23.352;2022-12-18T02:05:06;26.33;;;12.68;;
41233;SDS011;26968;42.686;23.352;2022-12-18T02:10:06;23.08;;;12.60;;
41233;SDS011;26968;42.686;23.352;2022-12-18T02:17:57;21.60;;;11.02;;
41233;SDS011;26968;42.686;23.352;2022-12-18T02:20:51;22.00;;;11.70;;
41233;SDS011;26968;42.686;23.352;2022-12-18T02:26:34;21.92;;;11.23;;
41233;SDS011;26968;42.686;23.352;2022-12-18T02:29:08;23.67;;;11.43;;
41233;SDS011;26968;42.686;23.352;2022-12-18T02:31:39;20.92;;;11.23;;
41233;SDS011;26968;42.686;23.352;2022-12-18T02:34:09;21.80;;;11.77;;
41233;SDS011;26968;42.686;23.352;2022-12-18T02:36:38;21.02;;;11.65;;
41233;SDS011;26968;42.686;23.352;2022-12-18T02:39:07;18.55;;;11.10;;
41233;SDS011;26968;42.686;23.352;2022-12-18T02:41:36;20.70;;;11.32;;
41233;SDS011;26968;42.686;23.352;2022-12-18T02:44:06;22.08;;;11.07;;
41233;SDS011;26968;42.686;23.352;2022-12-18T02:46:35;22.65;;;11.65;;
41233;SDS011;26968;42.686;23.352;2022-12-18T02:55:07;24.23;;;11.85;;
41233;SDS011;26968;42.686;23.352;2022-12-18T02:57:34;21.52;;;11.90;;
41233;SDS011;26968;42.686;23.352;2022-12-18T03:00:15;25.20;;;13.02;;
41233;SDS011;26968;42.686;23.352;2022-12-18T03:05:25;19.77;;;11.30;;
41233;SDS011;26968;42.686;23.352;2022-12-18T03:07:56;20.05;;;11.48;;
41233;SDS011;26968;42.686;23.352;2022-12-18T03:10:28;24.63;;;13.70;;
41233;SDS011;26968;42.686;23.352;2022-12-18T03:15:46;23.20;;;12.55;;
41233;SDS011;26968;42.686;23.352;2022-12-18T03:18:21;22.90;;;12.70;;
41233;SDS011;26968;42.686;23.352;2022-12-18T03:20:51;20.30;;;10.60;;
41233;SDS011;26968;42.686;23.352;2022-12-18T03:23:21;17.17;;;11.45;;
41233;SDS011;26968;42.686;23.352;2022-12-18T03:25:51;20.40;;;11.82;;
41233;SDS011;26968;42.686;23.352;2022-12-18T03:28:22;25.83;;;12.07;;
41233;SDS011;26968;42.686;23.352;2022-12-18T03:30:49;20.52;;;11.18;;
41233;SDS011;26968;42.686;23.352;2022-12-18T03:33:25;19.77;;;11.73;;
41233;SDS011;26968;42.686;23.352;2022-12-18T03:35:54;25.17;;;12.60;;
41233;SDS011;26968;42.686;23.352;2022-12-18T03:38:20;24.13;;;12.85;;
41233;SDS011;26968;42.686;23.352;2022-12-18T03:46:40;26.27;;;12.13;;
41233;SDS011;26968;42.686;23.352;2022-12-18T03:52:02;22.70;;;11.48;;
41233;SDS011;26968;42.686;23.352;2022-12-18T03:54:35;20.02;;;11.82;;
41233;SDS011;26968;42.686;23.352;2022-12-18T03:57:21;21.77;;;11.25;;
41233;SDS011;26968;42.686;23.352;2022-12-18T03:59:50;22.40;;;11.00;;
41233;SDS011;26968;42.686;23.352;2022-12-18T04:02:20;21.85;;;11.98;;
41233;SDS011;26968;42.686;23.352;2022-12-18T04:04:47;19.33;;;11.15;;
41233;SDS011;26968;42.686;23.352;2022-12-18T04:07:17;24.13;;;11.88;;
41233;SDS011;26968;42.686;23.352;2022-12-18T04:09:43;19.05;;;11.40;;
41233;SDS011;26968;42.686;23.352;2022-12-18T04:12:10;18.23;;;11.00;;
41233;SDS011;26968;42.686;23.352;2022-12-18T04:14:36;22.60;;;11.32;;
41233;SDS011;26968;42.686;23.352;2022-12-18T04:17:02;19.27;;;11.15;;
41233;SDS011;26968;42.686;23.352;2022-12-18T04:19:28;19.77;;;11.35;;
41233;SDS011;26968;42.686;23.352;2022-12-18T04:21:53;22.58;;;11.27;;
41233;SDS011;26968;42.686;23.352;2022-12-18T04:24:19;21.95;;;11.82;;
41233;SDS011;26968;42.686;23.352;2022-12-18T04:26:44;28.38;;;13.10;;
41233;SDS011;26968;42.686;23.352;2022-12-18T04:29:10;23.13;;;12.32;;
41233;SDS011;26968;42.686;23.352;2022-12-18T04:31:35;27.20;;;13.25;;
41233;SDS011;26968;42.686;23.352;2022-12-18T04:34:01;25.23;;;13.45;;
41233;SDS011;26968;42.686;23.352;2022-12-18T04:36:26;28.90;;;14.80;;
41233;SDS011;26968;42.686;23.352;2022-12-18T04:38:52;28.67;;;13.38;;
41233;SDS011;26968;42.686;23.352;2022-12-18T04:41:17;23.42;;;13.25;;
41233;SDS011;26968;42.686;23.352;2022-12-18T04:43:46;21.67;;;13.23;;
41233;SDS011;26968;42.686;23.352;2022-12-18T04:46:12;24.30;;;12.85;;
41233;SDS011;26968;42.686;23.352;2022-12-18T04:48:37;28.50;;;14.50;;
41233;SDS011;26968;42.686;23.352;2022-12-18T04:51:03;30.77;;;13.45;;
41233;SDS011;26968;42.686;23.352;2022-12-18T04:53:29;29.75;;;15.75;;
41233;SDS011;26968;42.686;23.352;2022-12-18T04:56:09;28.77;;;15.43;;
41233;SDS011;26968;42.686;23.352;2022-12-18T04:58:36;27.13;;;14.05;;
41233;SDS011;26968;42.686;23.352;2022-12-18T05:01:02;22.67;;;13.38;;
41233;SDS011;26968;42.686;23.352;2022-12-18T05:03:28;27.98;;;15.07;;
41233;SDS011;26968;42.686;23.352;2022-12-18T05:05:54;27.67;;;15.20;;
41233;SDS011;26968;42.686;23.352;2022-12-18T05:08:19;39.60;;;17.48;;
41233;SDS011;26968;42.686;23.352;2022-12-18T05:10:45;29.55;;;14.73;;
41233;SDS011;26968;42.686;23.352;2022-12-18T05:13:11;30.17;;;15.65;;
41233;SDS011;26968;42.686;23.352;2022-12-18T05:15:36;29.50;;;15.27;;
41233;SDS011;26968;42.686;23.352;2022-12-18T05:18:02;34.42;;;17.13;;
41233;SDS011;26968;42.686;23.352;2022-12-18T05:20:28;32.13;;;16.10;;
41233;SDS011;26968;42.686;23.352;2022-12-18T05:22:54;32.80;;;16.90;;
41233;SDS011;26968;42.686;23.352;2022-12-18T05:25:20;34.47;;;15.45;;
41233;SDS011;26968;42.686;23.352;2022-12-18T05:27:46;33.40;;;17.45;;
41233;SDS011;26968;42.686;23.352;2022-12-18T05:30:12;34.53;;;16.55;;
41233;SDS011;26968;42.686;23.352;2022-12-18T05:32:39;34.10;;;16.92;;
41233;SDS011;26968;42.686;23.352;2022-12-18T05:35:05;28.73;;;16.33;;
41233;SDS011;26968;42.686;23.352;2022-12-18T05:37:32;33.88;;;16.75;;
41233;SDS011;26968;42.686;23.352;2022-12-18T05:39:58;31.88;;;16.17;;
41233;SDS011;26968;42.686;23.352;2022-12-18T05:42:24;38.10;;;17.50;;
41233;SDS011;26968;42.686;23.352;2022-12-18T05:44:49;34.95;;;15.85;;
41233;SDS011;26968;42.686;23.352;2022-12-18T05:47:14;38.97;;;16.92;;
41233;SDS011;26968;42.686;23.352;2022-12-18T05:49:40;33.83;;;17.17;;
41233;SDS011;26968;42.686;23.352;2022-12-18T05:52:05;36.53;;;17.75;;
41233;SDS011;26968;42.686;23.352;2022-12-18T05:54:31;36.15;;;17.08;;
41233;SDS011;26968;42.686;23.352;2022-12-18T05:56:57;36.00;;;17.20;;
41233;SDS011;26968;42.686;23.352;2022-12-18T05:59:22;32.33;;;16.17;;
41233;SDS011;26968;42.686;23.352;2022-12-18T06:01:48;33.80;;;17.77;;
41233;SDS011;26968;42.686;23.352;2022-12-18T06:04:14;32.03;;;16.85;;
41233;SDS011;26968;42.686;23.352;2022-12-18T06:06:39;33.45;;;17.02;;
41233;SDS011;26968;42.686;23.352;2022-12-18T06:09:04;33.60;;;17.48;;
41233;SDS011;26968;42.686;23.352;2022-12-18T06:11:35;42.05;;;17.10;;
41233;SDS011;26968;42.686;23.352;2022-12-18T06:14:01;35.10;;;17.98;;
41233;SDS011;26968;42.686;23.352;2022-12-18T06:16:29;38.92;;;17.83;;
41233;SDS011;26968;42.686;23.352;2022-12-18T06:18:58;31.88;;;17.25;;
41233;SDS011;26968;42.686;23.352;2022-12-18T06:21:24;38.58;;;18.90;;
41233;SDS011;26968;42.686;23.352;2022-12-18T06:23:50;38.25;;;18.90;;
41233;SDS011;26968;42.686;23.352;2022-12-18T06:26:15;38.55;;;19.63;;
41233;SDS011;26968;42.686;23.352;2022-12-18T06:28:41;35.22;;;17.50;;
41233;SDS011;26968;42.686;23.352;2022-12-18T06:31:07;37.55;;;18.27;;
41233;SDS011;26968;42.686;23.352;2022-12-18T06:33:33;36.58;;;17.92;;
41233;SDS011;26968;42.686;23.352;2022-12-18T06:36:00;36.65;;;18.27;;
41233;SDS011;26968;42.686;23.352;2022-12-18T06:40:57;36.47;;;18.63;;
41233;SDS011;26968;42.686;23.352;2022-12-18T06:43:22;35.85;;;17.45;;
41233;SDS011;26968;42.686;23.352;2022-12-18T06:45:48;40.90;;;18.88;;
41233;SDS011;26968;42.686;23.352;2022-12-18T06:48:17;37.08;;;18.60;;
41233;SDS011;26968;42.686;23.352;2022-12-18T06:50:44;40.90;;;18.17;;
41233;SDS011;26968;42.686;23.352;2022-12-18T06:53:10;39.35;;;18.77;;
41233;SDS011;26968;42.686;23.352;2022-12-18T06:55:36;32.42;;;17.17;;
41233;SDS011;26968;42.686;23.352;2022-12-18T06:58:01;38.55;;;18.50;;
41233;SDS011;26968;42.686;23.352;2022-12-18T07:00:27;33.10;;;17.10;;
41233;SDS011;26968;42.686;23.352;2022-12-18T07:02:52;32.75;;;17.00;;
41233;SDS011;26968;42.686;23.352;2022-12-18T07:05:17;34.60;;;16.58;;
41233;SDS011;26968;42.686;23.352;2022-12-18T07:07:43;32.08;;;16.63;;
41233;SDS011;26968;42.686;23.352;2022-12-18T07:10:08;34.95;;;17.15;;
41233;SDS011;26968;42.686;23.352;2022-12-18T07:12:34;31.58;;;16.08;;
41233;SDS011;26968;42.686;23.352;2022-12-18T07:15:01;32.53;;;16.08;;
41233;SDS011;26968;42.686;23.352;2022-12-18T07:17:26;34.85;;;17.30;;
41233;SDS011;26968;42.686;23.352;2022-12-18T07:19:52;29.98;;;16.13;;
41233;SDS011;26968;42.686;23.352;2022-12-18T07:22:17;33.75;;;17.40;;
41233;SDS011;26968;42.686;23.352;2022-12-18T07:24:43;35.05;;;17.40;;
41233;SDS011;26968;42.686;23.352;2022-12-18T07:27:08;37.72;;;19.10;;
41233;SDS011;26968;42.686;23.352;2022-12-18T07:29:33;39.10;;;18.48;;
41233;SDS011;26968;42.686;23.352;2022-12-18T07:31:59;37.15;;;19.02;;
41233;SDS011;26968;42.686;23.352;2022-12-18T07:34:24;38.30;;;19.25;;
41233;SDS011;26968;42.686;23.352;2022-12-18T07:36:50;40.38;;;19.55;;
41233;SDS011;26968;42.686;23.352;2022-12-18T07:39:15;38.40;;;20.08;;
41233;SDS011;26968;42.686;23.352;2022-12-18T07:41:40;46.60;;;21.77;;
41233;SDS011;26968;42.686;23.352;2022-12-18T07:44:10;43.78;;;19.95;;
41233;SDS011;26968;42.686;23.352;2022-12-18T07:46:37;40.15;;;19.02;;
41233;SDS011;26968;42.686;23.352;2022-12-18T07:49:02;48.25;;;21.13;;
41233;SDS011;26968;42.686;23.352;2022-12-18T07:51:28;51.92;;;21.60;;
41233;SDS011;26968;42.686;23.352;2022-12-18T07:53:53;46.22;;;20.98;;
41233;SDS011;26968;42.686;23.352;2022-12-18T07:56:19;43.55;;;22.35;;
41233;SDS011;26968;42.686;23.352;2022-12-18T07:58:45;46.17;;;22.15;;
41233;SDS011;26968;42.686;23.352;2022-12-18T08:01:12;45.38;;;22.10;;
41233;SDS011;26968;42.686;23.352;2022-12-18T08:03:38;42.70;;;21.58;;
41233;SDS011;26968;42.686;23.352;2022-12-18T08:06:06;49.67;;;22.85;;
41233;SDS011;26968;42.686;23.352;2022-12-18T08:08:33;45.25;;;21.27;;
41233;SDS011;26968;42.686;23.352;2022-12-18T08:10:59;48.47;;;22.75;;
41233;SDS011;26968;42.686;23.352;2022-12-18T08:13:25;39.03;;;21.67;;
41233;SDS011;26968;42.686;23.352;2022-12-18T08:16:04;50.50;;;23.13;;
41233;SDS011;26968;42.686;23.352;2022-12-18T08:18:32;43.00;;;22.55;;
41233;SDS011;26968;42.686;23.352;2022-12-18T08:21:06;44.83;;;22.55;;
41233;SDS011;26968;42.686;23.352;2022-12-18T08:23:33;49.63;;;23.30;;
41233;SDS011;26968;42.686;23.352;2022-12-18T08:25:58;45.55;;;22.35;;
41233;SDS011;26968;42.686;23.352;2022-12-18T08:28:24;43.50;;;22.60;;
41233;SDS011;26968;42.686;23.352;2022-12-18T08:30:51;45.85;;;21.60;;
41233;SDS011;26968;42.686;23.352;2022-12-18T08:33:17;40.97;;;22.02;;
41233;SDS011;26968;42.686;23.352;2022-12-18T08:35:42;46.25;;;21.20;;
41233;SDS011;26968;42.686;23.352;2022-12-18T08:38:07;46.15;;;22.33;;
41233;SDS011;26968;42.686;23.352;2022-12-18T08:40:33;44.88;;;21.00;;
41233;SDS011;26968;42.686;23.352;2022-12-18T08:42:58;45.05;;;21.00;;
41233;SDS011;26968;42.686;23.352;2022-12-18T08:45:42;47.53;;;23.00;;
41233;SDS011;26968;42.686;23.352;2022-12-18T08:48:08;43.88;;;22.17;;
41233;SDS011;26968;42.686;23.352;2022-12-18T08:50:34;45.63;;;21.58;;
41233;SDS011;26968;42.686;23.352;2022-12-18T08:52:59;47.65;;;20.80;;
41233;SDS011;26968;42.686;23.352;2022-12-18T08:55:25;42.97;;;20.98;;
41233;SDS011;26968;42.686;23.352;2022-12-18T08:57:50;45.22;;;20.88;;
41233;SDS011;26968;42.686;23.352;2022-12-18T09:00:16;41.42;;;21.33;;
41233;SDS011;26968;42.686;23.352;2022-12-18T09:02:41;41.47;;;20.27;;
41233;SDS011;26968;42.686;23.352;2022-12-18T09:05:07;52.67;;;21.05;;
41233;SDS011;26968;42.686;23.352;2022-12-18T09:07:32;43.70;;;20.95;;
41233;SDS011;26968;42.686;23.352;2022-12-18T09:09:58;41.20;;;19.45;;
41233;SDS011;26968;42.686;23.352;2022-12-18T09:12:23;39.50;;;18.55;;
41233;SDS011;26968;42.686;23.352;2022-12-18T09:14:49;41.08;;;18.50;;
41233;SDS011;26968;42.686;23.352;2022-12-18T09:17:14;40.45;;;19.98;;
41233;SDS011;26968;42.686;23.352;2022-12-18T09:19:40;39.50;;;19.08;;
41233;SDS011;26968;42.686;23.352;2022-12-18T09:22:05;43.78;;;19.48;;
41233;SDS011;26968;42.686;23.352;2022-12-18T09:24:30;35.47;;;18.25;;
41233;SDS011;26968;42.686;23.352;2022-12-18T09:26:56;39.05;;;17.67;;
41233;SDS011;26968;42.686;23.352;2022-12-18T09:29:21;33.70;;;16.48;;
41233;SDS011;26968;42.686;23.352;2022-12-18T09:31:47;33.10;;;17.33;;
41233;SDS011;26968;42.686;23.352;2022-12-18T09:34:12;42.25;;;19.77;;
41233;SDS011;26968;42.686;23.352;2022-12-18T09:36:38;36.38;;;18.02;;
41233;SDS011;26968;42.686;23.352;2022-12-18T09:39:04;36.20;;;17.73;;
41233;SDS011;26968;42.686;23.352;2022-12-18T09:41:50;35.85;;;18.02;;
41233;SDS011;26968;42.686;23.352;2022-12-18T09:44:29;35.42;;;17.95;;
41233;SDS011;26968;42.686;23.352;2022-12-18T09:49:32;36.25;;;17.45;;
41233;SDS011;26968;42.686;23.352;2022-12-18T09:52:08;43.60;;;20.15;;
41233;SDS011;26968;42.686;23.352;2022-12-18T09:54:42;35.85;;;17.60;;
41233;SDS011;26968;42.686;23.352;2022-12-18T09:57:13;43.80;;;20.35;;
41233;SDS011;26968;42.686;23.352;2022-12-18T09:59:41;38.58;;;18.08;;
41233;SDS011;26968;42.686;23.352;2022-12-18T10:02:22;36.13;;;17.75;;
41233;SDS011;26968;42.686;23.352;2022-12-18T10:07:31;36.72;;;17.15;;
41233;SDS011;26968;42.686;23.352;2022-12-18T10:26:02;34.33;;;16.13;;
41233;SDS011;26968;42.686;23.352;2022-12-18T10:28:30;37.42;;;16.13;;
41233;SDS011;26968;42.686;23.352;2022-12-18T10:30:57;36.40;;;16.38;;
41233;SDS011;26968;42.686;23.352;2022-12-18T10:33:23;33.35;;;16.55;;
41233;SDS011;26968;42.686;23.352;2022-12-18T10:35:53;35.55;;;16.88;;
41233;SDS011;26968;42.686;23.352;2022-12-18T10:38:24;33.15;;;15.93;;
41233;SDS011;26968;42.686;23.352;2022-12-18T10:43:20;37.33;;;17.50;;
41233;SDS011;26968;42.686;23.352;2022-12-18T10:48:24;36.85;;;18.00;;
41233;SDS011;26968;42.686;23.352;2022-12-18T10:50:50;39.70;;;18.10;;
41233;SDS011;26968;42.686;23.352;2022-12-18T10:53:24;36.55;;;18.85;;
41233;SDS011;26968;42.686;23.352;2022-12-18T10:55:52;35.08;;;18.25;;
41233;SDS011;26968;42.686;23.352;2022-12-18T11:06:07;41.58;;;18.58;;
41233;SDS011;26968;42.686;23.352;2022-12-18T11:08:44;42.13;;;19.77;;
41233;SDS011;26968;42.686;23.352;2022-12-18T11:11:23;38.55;;;17.33;;
41233;SDS011;26968;42.686;23.352;2022-12-18T11:13:52;44.28;;;20.52;;
41233;SDS011;26968;42.686;23.352;2022-12-18T11:21:53;38.20;;;17.38;;
41233;SDS011;26968;42.686;23.352;2022-12-18T11:24:21;38.15;;;17.65;;
41233;SDS011;26968;42.686;23.352;2022-12-18T11:27:00;38.63;;;18.45;;
41233;SDS011;26968;42.686;23.352;2022-12-18T11:32:31;42.72;;;20.90;;
41233;SDS011;26968;42.686;23.352;2022-12-18T11:35:13;36.60;;;18.40;;
41233;SDS011;26968;42.686;23.352;2022-12-18T11:37:46;39.72;;;19.42;;
41233;SDS011;26968;42.686;23.352;2022-12-18T11:40:20;36.58;;;18.88;;
41233;SDS011;26968;42.686;23.352;2022-12-18T11:46:03;37.20;;;17.88;;
41233;SDS011;26968;42.686;23.352;2022-12-18T11:51:04;39.13;;;16.88;;
41233;SDS011;26968;42.686;23.352;2022-12-18T11:53:39;42.60;;;18.20;;
41233;SDS011;26968;42.686;23.352;2022-12-18T11:59:16;40.78;;;17.17;;
41233;SDS011;26968;42.686;23.352;2022-12-18T12:07:35;37.38;;;18.25;;
41233;SDS011;26968;42.686;23.352;2022-12-18T12:10:16;36.58;;;17.92;;
41233;SDS011;26968;42.686;23.352;2022-12-18T12:18:26;45.03;;;19.50;;
41233;SDS011;26968;42.686;23.352;2022-12-18T12:40:38;38.40;;;17.55;;
41233;SDS011;26968;42.686;23.352;2022-12-18T12:43:21;40.15;;;19.85;;
41233;SDS011;26968;42.686;23.352;2022-12-18T12:45:53;43.08;;;18.83;;
41233;SDS011;26968;42.686;23.352;2022-12-18T12:48:35;42.72;;;18.88;;
41233;SDS011;26968;42.686;23.352;2022-12-18T12:51:02;43.33;;;20.02;;
41233;SDS011;26968;42.686;23.352;2022-12-18T12:53:35;40.72;;;18.58;;
41233;SDS011;26968;42.686;23.352;2022-12-18T12:56:04;48.05;;;19.70;;
41233;SDS011;26968;42.686;23.352;2022-12-18T12:58:36;39.58;;;18.73;;
41233;SDS011;26968;42.686;23.352;2022-12-18T13:06:46;42.05;;;19.60;;
41233;SDS011;26968;42.686;23.352;2022-12-18T13:09:32;36.35;;;18.27;;
41233;SDS011;26968;42.686;23.352;2022-12-18T13:12:18;39.83;;;19.30;;
41233;SDS011;26968;42.686;23.352;2022-12-18T13:15:21;36.13;;;17.67;;
41233;SDS011;26968;42.686;23.352;2022-12-18T13:18:35;36.72;;;17.15;;
41233;SDS011;26968;42.686;23.352;2022-12-18T13:20:36;35.38;;;17.73;;
41233;SDS011;26968;42.686;23.352;2022-12-18T13:25:45;38.95;;;17.98;;
41233;SDS011;26968;42.686;23.352;2022-12-18T13:30:55;40.47;;;19.27;;
41233;SDS011;26968;42.686;23.352;2022-12-18T13:43:36;47.45;;;21.70;;
41233;SDS011;26968;42.686;23.352;2022-12-18T13:49:03;43.60;;;20.30;;
41233;SDS011;26968;42.686;23.352;2022-12-18T13:51:42;34.92;;;18.52;;
41233;SDS011;26968;42.686;23.352;2022-12-18T13:56:58;38.63;;;19.55;;
41233;SDS011;26968;42.686;23.352;2022-12-18T13:59:25;45.08;;;18.05;;
41233;SDS011;26968;42.686;23.352;2022-12-18T14:04:23;39.55;;;17.85;;
41233;SDS011;26968;42.686;23.352;2022-12-18T14:06:53;39.53;;;19.58;;
41233;SDS011;26968;42.686;23.352;2022-12-18T14:09:27;42.03;;;20.50;;
41233;SDS011;26968;42.686;23.352;2022-12-18T14:11:55;38.22;;;17.80;;
41233;SDS011;26968;42.686;23.352;2022-12-18T14:14:42;37.67;;;17.67;;
41233;SDS011;26968;42.686;23.352;2022-12-18T14:17:10;38.13;;;16.45;;
41233;SDS011;26968;42.686;23.352;2022-12-18T14:19:36;35.95;;;16.65;;
41233;SDS011;26968;42.686;23.352;2022-12-18T14:22:09;35.05;;;16.85;;
41233;SDS011;26968;42.686;23.352;2022-12-18T14:24:40;36.28;;;15.65;;
41233;SDS011;26968;42.686;23.352;2022-12-18T14:27:21;40.17;;;17.70;;
41233;SDS011;26968;42.686;23.352;2022-12-18T14:29:48;35.83;;;16.43;;
41233;SDS011;26968;42.686;23.352;2022-12-18T14:32:15;34.28;;;16.52;;
41233;SDS011;26968;42.686;23.352;2022-12-18T14:34:46;37.40;;;18.08;;
41233;SDS011;26968;42.686;23.352;2022-12-18T14:37:17;30.83;;;16.27;;
41233;SDS011;26968;42.686;23.352;2022-12-18T14:39:54;40.13;;;18.02;;
41233;SDS011;26968;42.686;23.352;2022-12-18T14:42:27;37.60;;;17.87;;
41233;SDS011;26968;42.686;23.352;2022-12-18T14:47:56;39.05;;;16.17;;
41233;SDS011;26968;42.686;23.352;2022-12-18T14:50:22;35.53;;;16.45;;
41233;SDS011;26968;42.686;23.352;2022-12-18T14:52:48;36.83;;;16.50;;
41233;SDS011;26968;42.686;23.352;2022-12-18T14:55:17;31.38;;;14.77;;
41233;SDS011;26968;42.686;23.352;2022-12-18T14:57:44;32.63;;;15.60;;
41233;SDS011;26968;42.686;23.352;2022-12-18T15:00:20;34.42;;;16.38;;
41233;SDS011;26968;42.686;23.352;2022-12-18T15:02:54;31.63;;;15.55;;
41233;SDS011;26968;42.686;23.352;2022-12-18T15:07:53;26.40;;;13.63;;
41233;SDS011;26968;42.686;23.352;2022-12-18T15:10:21;35.30;;;15.52;;
41233;SDS011;26968;42.686;23.352;2022-12-18T15:13:15;28.60;;;13.80;;
41233;SDS011;26968;42.686;23.352;2022-12-18T15:20:32;30.98;;;14.43;;
41233;SDS011;26968;42.686;23.352;2022-12-18T15:23:54;31.17;;;13.93;;
41233;SDS011;26968;42.686;23.352;2022-12-18T15:26:09;32.63;;;14.30;;
41233;SDS011;26968;42.686;23.352;2022-12-18T15:33:37;37.25;;;15.77;;
41233;SDS011;26968;42.686;23.352;2022-12-18T15:38:34;33.20;;;15.50;;
41233;SDS011;26968;42.686;23.352;2022-12-18T15:40:59;32.88;;;15.27;;
41233;SDS011;26968;42.686;23.352;2022-12-18T15:43:25;33.55;;;16.05;;
41233;SDS011;26968;42.686;23.352;2022-12-18T15:46:00;31.98;;;16.00;;
41233;SDS011;26968;42.686;23.352;2022-12-18T15:48:39;33.90;;;16.33;;
41233;SDS011;26968;42.686;23.352;2022-12-18T15:51:19;38.25;;;17.90;;
41233;SDS011;26968;42.686;23.352;2022-12-18T15:53:48;38.80;;;17.63;;
41233;SDS011;26968;42.686;23.352;2022-12-18T15:56:17;34.30;;;16.05;;
41233;SDS011;26968;42.686;23.352;2022-12-18T15:59:01;38.08;;;17.35;;
41233;SDS011;26968;42.686;23.352;2022-12-18T16:01:28;35.55;;;16.25;;
41233;SDS011;26968;42.686;23.352;2022-12-18T16:03:55;38.40;;;17.67;;
41233;SDS011;26968;42.686;23.352;2022-12-18T16:06:23;37.50;;;17.55;;
41233;SDS011;26968;42.686;23.352;2022-12-18T16:08:49;40.58;;;18.38;;
41233;SDS011;26968;42.686;23.352;2022-12-18T16:11:20;39.70;;;18.48;;
41233;SDS011;26968;42.686;23.352;2022-12-18T16:14:22;36.78;;;16.90;;
41233;SDS011;26968;42.686;23.352;2022-12-18T16:16:52;35.60;;;16.35;;
41233;SDS011;26968;42.686;23.352;2022-12-18T16:19:19;39.53;;;18.75;;
41233;SDS011;26968;42.686;23.352;2022-12-18T16:21:46;40.63;;;16.55;;
41233;SDS011;26968;42.686;23.352;2022-12-18T16:24:23;41.40;;;18.55;;
41233;SDS011;26968;42.686;23.352;2022-12-18T16:26:51;35.95;;;16.63;;
41233;SDS011;26968;42.686;23.352;2022-12-18T16:29:18;38.67;;;17.85;;
41233;SDS011;26968;42.686;23.352;2022-12-18T16:31:44;36.08;;;16.27;;
41233;SDS011;26968;42.686;23.352;2022-12-18T16:34:10;40.15;;;17.42;;
41233;SDS011;26968;42.686;23.352;2022-12-18T16:36:39;37.22;;;17.48;;
41233;SDS011;26968;42.686;23.352;2022-12-18T16:39:04;38.08;;;17.38;;
41233;SDS011;26968;42.686;23.352;2022-12-18T16:41:30;38.83;;;18.33;;
41233;SDS011;26968;42.686;23.352;2022-12-18T16:44:01;37.15;;;17.70;;
41233;SDS011;26968;42.686;23.352;2022-12-18T16:46:26;41.65;;;18.90;;
41233;SDS011;26968;42.686;23.352;2022-12-18T16:48:52;45.28;;;20.65;;
41233;SDS011;26968;42.686;23.352;2022-12-18T16:51:17;41.00;;;18.08;;
41233;SDS011;26968;42.686;23.352;2022-12-18T16:53:43;42.20;;;19.02;;
41233;SDS011;26968;42.686;23.352;2022-12-18T16:56:08;42.63;;;19.13;;
41233;SDS011;26968;42.686;23.352;2022-12-18T16:58:34;41.38;;;19.92;;
41233;SDS011;26968;42.686;23.352;2022-12-18T17:00:59;38.72;;;18.83;;
41233;SDS011;26968;42.686;23.352;2022-12-18T17:03:25;43.42;;;20.17;;
41233;SDS011;26968;42.686;23.352;2022-12-18T17:05:50;48.00;;;19.33;;
41233;SDS011;26968;42.686;23.352;2022-12-18T17:08:16;39.70;;;18.42;;
41233;SDS011;26968;42.686;23.352;2022-12-18T17:10:41;43.78;;;19.10;;